Terminal Aerodrome Forecast
Issued by NWS Central Illinois

Home | Current Version | Previous Version | Text Only | Print | Product List | Glossary On
Versions: 1 2 3 4 5 6 7 8 9 10 11 12 13 14 15
000
FTUS43 KILX 250205 AAA
TAFPIA
TAF AMD
KPIA 250205Z 2502/2524 27010KT P6SM SCT100 BKN250
     FM250400 30010KT P6SM SCT150
     FM251500 32010G17KT P6SM SCT035=

USA.gov is the U.S. government's official web portal to all federal, state and local government web resources and services.